createdAt,value
2024-01-16T00:02:18.424Z,98034.60
2024-01-16T00:07:29.604Z,98024.00
2024-01-16T00:12:34.544Z,98045.60
2024-01-16T00:17:48.456Z,98067.00
2024-01-16T00:23:01.137Z,98084.40
2024-01-16T00:28:15.768Z,98077.00
2024-01-16T00:33:17.633Z,98097.00
2024-01-16T00:38:25.524Z,98099.80
2024-01-16T00:43:49.747Z,98092.80
2024-01-16T00:49:07.787Z,98103.20
2024-01-16T00:54:43.434Z,98118.60
2024-01-16T00:59:45.882Z,98126.00
2024-01-16T01:04:56.727Z,98136.80
2024-01-16T01:10:00.894Z,98127.20
2024-01-16T01:15:14.516Z,98154.60
2024-01-16T01:20:18.681Z,98163.20
2024-01-16T01:25:28.778Z,98172.80
2024-01-16T01:30:55.921Z,98187.80
2024-01-16T01:36:06.382Z,98195.60
2024-01-16T01:41:33.986Z,98198.20
2024-01-16T01:46:48.883Z,98209.40
2024-01-16T01:52:11.092Z,98210.80
2024-01-16T01:57:13.703Z,98216.80
2024-01-16T02:02:35.812Z,98215.80
2024-01-16T02:07:58.534Z,98228.80
2024-01-16T02:13:15.839Z,98230.00
2024-01-16T02:19:05.434Z,98237.20
2024-01-16T02:24:12.142Z,98252.20
2024-01-16T02:29:17.454Z,98254.60
2024-01-16T02:34:25.128Z,98267.20
2024-01-16T02:40:04.303Z,98268.20
2024-01-16T02:45:52.504Z,98276.40
2024-01-16T02:51:55.016Z,98279.00
2024-01-16T02:57:02.911Z,98295.20
2024-01-16T03:02:32.034Z,98300.00
2024-01-16T03:07:37.923Z,98312.80
2024-01-16T03:12:59.122Z,98327.20
2024-01-16T03:18:25.094Z,98326.00
2024-01-16T03:23:46.131Z,98338.20
2024-01-16T03:29:13.612Z,98334.80
2024-01-16T03:34:25.890Z,98334.00
2024-01-16T03:39:38.081Z,98345.80
2024-01-16T03:45:02.034Z,98355.20
2024-01-16T03:50:45.508Z,98374.00
2024-01-16T03:55:56.855Z,98378.60
2024-01-16T04:01:39.232Z,98381.20
2024-01-16T04:07:12.059Z,98394.20
2024-01-16T04:12:37.312Z,98410.00
2024-01-16T04:17:58.983Z,98427.20
2024-01-16T04:24:08.699Z,98437.40
2024-01-16T04:30:00.489Z,98436.20
2024-01-16T04:35:22.896Z,98447.00
2024-01-16T04:40:29.502Z,98453.40
2024-01-16T04:45:43.675Z,98472.60
2024-01-16T04:51:01.459Z,98469.20
2024-01-16T04:56:11.829Z,98481.00
2024-01-16T05:01:16.538Z,98483.40
2024-01-16T05:07:08.222Z,98487.60
2024-01-16T05:12:39.056Z,98501.80
2024-01-16T05:17:40.951Z,98500.80
2024-01-16T05:22:58.448Z,98509.00
2024-01-16T05:28:25.092Z,98518.20
2024-01-16T05:33:50.340Z,98538.40
2024-01-16T05:39:15.533Z,98546.60
2024-01-16T05:44:19.907Z,98553.80
2024-01-16T05:49:52.247Z,98563.40
2024-01-16T05:54:58.669Z,98564.80
2024-01-16T06:00:23.452Z,98557.00
2024-01-16T06:05:40.881Z,98566.80
2024-01-16T06:10:51.845Z,98578.00
2024-01-16T06:15:53.573Z,98589.40
2024-01-16T06:20:55.527Z,98595.40
2024-01-16T06:26:20.910Z,98611.00
2024-01-16T06:31:31.983Z,98614.00
2024-01-16T06:36:38.841Z,98626.20
2024-01-16T06:41:44.535Z,98636.80
2024-01-16T06:46:49.024Z,98654.80
2024-01-16T06:52:13.788Z,98661.60
2024-01-16T06:57:15.530Z,98670.40
2024-01-16T07:02:17.474Z,98666.40
2024-01-16T07:07:41.131Z,98679.60
2024-01-16T07:12:46.102Z,98680.60
2024-01-16T07:17:51.194Z,98684.00
2024-01-16T07:22:56.596Z,98684.40
2024-01-16T07:27:58.526Z,98693.20
2024-01-16T07:33:00.745Z,98700.20
2024-01-16T07:38:05.821Z,98703.20
2024-01-16T07:43:07.806Z,98710.60
2024-01-16T07:48:09.834Z,98713.60
2024-01-16T07:53:12.355Z,98714.00
2024-01-16T07:58:17.664Z,98735.40
2024-01-16T08:03:19.348Z,98739.40
2024-01-16T08:08:21.384Z,98752.40
2024-01-16T08:13:23.185Z,98765.00
2024-01-16T08:18:25.533Z,98767.80
2024-01-16T08:23:42.096Z,98775.40
2024-01-16T08:28:48.710Z,98794.20
2024-01-16T08:33:58.248Z,98786.80
2024-01-16T08:39:03.504Z,98791.00
2024-01-16T08:44:05.193Z,98792.00
2024-01-16T08:49:07.081Z,98802.80
2024-01-16T08:54:09.058Z,98803.40
2024-01-16T08:59:13.677Z,98816.80
2024-01-16T09:04:20.781Z,98814.40
2024-01-16T09:09:36.339Z,98818.40
2024-01-16T09:14:38.825Z,98821.80
2024-01-16T09:19:49.302Z,98830.80
2024-01-16T09:24:53.799Z,98835.40
2024-01-16T09:29:58.171Z,98842.40
2024-01-16T09:35:04.944Z,98854.40
2024-01-16T09:40:09.313Z,98859.40
2024-01-16T09:45:16.505Z,98869.80
2024-01-16T09:50:28.130Z,98876.60
2024-01-16T09:55:30.042Z,98877.60
2024-01-16T10:00:56.387Z,98886.60
2024-01-16T10:06:00.521Z,98901.60
2024-01-16T10:11:09.251Z,98913.40
2024-01-16T10:16:17.091Z,98916.20
2024-01-16T10:21:44.374Z,98922.40
2024-01-16T10:26:58.064Z,98919.40
2024-01-16T10:32:00.887Z,98931.00
2024-01-16T10:37:23.054Z,98944.40
2024-01-16T10:42:46.494Z,98954.60
2024-01-16T10:47:49.040Z,98947.00
2024-01-16T10:52:52.967Z,98956.60
2024-01-16T10:58:01.230Z,98952.60
2024-01-16T11:03:10.606Z,98964.40
2024-01-16T11:08:17.462Z,98972.80
2024-01-16T11:13:22.813Z,98973.60
2024-01-16T11:18:27.720Z,98970.80
2024-01-16T11:23:33.014Z,98979.20
2024-01-16T11:28:52.196Z,98982.20
2024-01-16T11:33:57.007Z,98982.20
2024-01-16T11:38:59.302Z,98997.60
2024-01-16T11:44:01.044Z,99003.60
2024-01-16T11:49:05.480Z,99003.00
2024-01-16T11:54:12.115Z,99014.80
2024-01-16T11:59:55.326Z,99019.00
2024-01-16T12:04:57.257Z,99029.80
2024-01-16T12:10:05.162Z,99032.20
2024-01-16T12:15:07.505Z,99034.20
2024-01-16T12:20:20.430Z,99033.80
2024-01-16T12:25:22.392Z,99043.60
2024-01-16T12:30:28.734Z,99049.80
2024-01-16T12:35:45.327Z,99048.20
2024-01-16T12:40:54.880Z,99063.00
2024-01-16T12:46:02.085Z,99072.80
2024-01-16T12:51:17.693Z,99076.00
2024-01-16T12:56:31.780Z,99082.80
2024-01-16T13:02:01.837Z,99091.20
2024-01-16T13:07:16.999Z,99099.40
2024-01-16T13:12:22.334Z,99101.20
2024-01-16T13:17:27.093Z,99113.60
2024-01-16T13:22:43.316Z,99113.80
2024-01-16T13:27:55.303Z,99116.60
2024-01-16T13:32:57.352Z,99115.80
2024-01-16T13:38:04.478Z,99126.20
2024-01-16T13:43:08.930Z,99138.60
2024-01-16T13:48:33.695Z,99152.80
2024-01-16T13:53:38.925Z,99165.20
2024-01-16T13:58:40.574Z,99167.40
2024-01-16T14:03:47.438Z,99176.20
2024-01-16T14:08:51.601Z,99190.40
2024-01-16T14:13:53.818Z,99179.60
2024-01-16T14:19:07.355Z,99187.00
2024-01-16T14:24:10.472Z,99197.60
2024-01-16T14:29:16.115Z,99193.60
2024-01-16T14:34:21.319Z,99205.40
2024-01-16T14:40:01.888Z,99216.00
2024-01-16T14:45:12.047Z,99212.80
2024-01-16T14:50:24.081Z,99221.60
2024-01-16T14:55:29.313Z,99233.40
2024-01-16T15:00:33.467Z,99235.80
2024-01-16T15:05:35.320Z,99247.20
2024-01-16T15:10:42.889Z,99252.20
2024-01-16T15:15:57.699Z,99262.80
2024-01-16T15:21:02.965Z,99265.20
2024-01-16T15:26:15.379Z,99271.20
2024-01-16T15:31:22.132Z,99284.40
2024-01-16T15:36:35.162Z,99294.20
2024-01-16T15:41:38.448Z,99311.80
2024-01-16T15:47:01.826Z,99324.80
2024-01-16T15:52:04.195Z,99332.40
2024-01-16T15:57:09.859Z,99338.40
2024-01-16T16:02:21.196Z,99347.00
2024-01-16T16:07:25.585Z,99351.20
2024-01-16T16:12:38.263Z,99360.40
2024-01-16T16:18:11.592Z,99359.20
2024-01-16T16:23:18.770Z,99351.80
2024-01-16T16:28:23.254Z,99359.40
2024-01-16T16:33:25.346Z,99369.20
2024-01-16T16:38:27.362Z,99370.80
2024-01-16T16:43:51.554Z,99378.60
2024-01-16T16:48:53.583Z,99382.60
2024-01-16T16:53:58.213Z,99386.80
2024-01-16T16:58:59.995Z,99396.60
2024-01-16T17:04:09.594Z,99403.20
2024-01-16T17:09:12.153Z,99404.60
2024-01-16T17:19:17.535Z,99406.60
2024-01-16T17:24:19.295Z,99409.20
2024-01-16T17:29:32.667Z,99417.60
2024-01-16T17:34:37.106Z,99417.20
2024-01-16T17:39:39.255Z,99418.40
2024-01-16T17:44:53.372Z,99420.40
2024-01-16T17:49:55.815Z,99441.80
2024-01-16T17:55:07.229Z,99439.60
2024-01-16T18:00:12.632Z,99447.40
2024-01-16T18:05:24.200Z,99447.60
2024-01-16T18:10:34.695Z,99447.40
2024-01-16T18:15:37.245Z,99456.60
2024-01-16T18:20:50.884Z,99466.80
2024-01-16T18:25:58.146Z,99469.20
2024-01-16T18:31:04.958Z,99472.60
2024-01-16T18:36:07.313Z,99482.60
2024-01-16T18:41:09.572Z,99484.60
2024-01-16T18:46:23.355Z,99483.40
2024-01-16T18:51:39.289Z,99482.00
2024-01-16T18:56:52.686Z,99487.80
2024-01-16T19:01:59.404Z,99487.40
2024-01-16T19:07:12.179Z,99500.00
2024-01-16T19:12:13.975Z,99507.40
2024-01-16T19:17:15.876Z,99521.20
2024-01-16T19:22:20.962Z,99530.20
2024-01-16T19:27:22.830Z,99532.00
2024-01-16T19:32:28.239Z,99533.60
2024-01-16T19:37:30.084Z,99540.40
2024-01-16T19:42:31.700Z,99536.40
2024-01-16T19:47:41.409Z,99539.00
2024-01-16T19:52:43.653Z,99539.00
2024-01-16T19:57:49.237Z,99531.80
2024-01-16T20:02:55.440Z,99541.60
2024-01-16T20:07:57.258Z,99550.60
2024-01-16T20:13:03.362Z,99541.80
2024-01-16T20:18:09.243Z,99549.00
2024-01-16T20:23:12.880Z,99554.20
2024-01-16T20:28:15.721Z,99576.40
2024-01-16T20:33:17.864Z,99573.00
2024-01-16T20:38:19.757Z,99570.40
2024-01-16T20:43:21.801Z,99576.80
2024-01-16T20:48:52.934Z,99581.80
2024-01-16T20:54:03.553Z,99589.60
2024-01-16T20:59:28.325Z,99584.00
2024-01-16T21:04:30.374Z,99586.60
2024-01-16T21:09:39.582Z,99578.80
2024-01-16T21:14:44.532Z,99561.40
2024-01-16T21:19:57.449Z,99565.20
2024-01-16T21:24:59.338Z,99561.00
2024-01-16T21:30:01.319Z,99560.20
2024-01-16T21:35:18.167Z,99552.20
2024-01-16T21:40:20.409Z,99571.60
2024-01-16T21:45:31.913Z,99580.80
2024-01-16T21:50:38.310Z,99570.60
2024-01-16T21:56:07.138Z,99577.00
2024-01-16T22:01:36.609Z,99561.40
2024-01-16T22:06:38.672Z,99552.00
2024-01-16T22:12:00.112Z,99548.20
2024-01-16T22:17:35.456Z,99544.60
2024-01-16T22:22:41.151Z,99536.40
2024-01-16T22:28:48.245Z,99539.60
2024-01-16T22:34:00.953Z,99528.60
2024-01-16T22:40:06.386Z,99523.00
2024-01-16T22:45:20.953Z,99524.40
2024-01-16T22:51:01.304Z,99521.00
2024-01-16T22:56:30.107Z,99520.40
2024-01-16T23:02:54.992Z,99512.60
2024-01-16T23:08:32.891Z,99505.60
2024-01-16T23:14:03.196Z,99503.60
2024-01-16T23:19:47.501Z,99494.20
2024-01-16T23:25:37.373Z,99484.80
2024-01-16T23:31:21.111Z,99482.20
2024-01-16T23:37:17.241Z,99486.00
2024-01-16T23:42:42.376Z,99483.20
2024-01-16T23:48:18.885Z,99478.00
2024-01-16T23:54:02.891Z,99472.40
2024-01-16T23:59:40.520Z,99464.00
